createdAt,value
2023-03-17T00:01:31.331Z,10.20
2023-03-17T00:04:06.858Z,9.30
2023-03-17T00:06:45.162Z,10.90
2023-03-17T00:09:22.522Z,9.60
2023-03-17T00:11:59.312Z,9.80
2023-03-17T00:14:36.400Z,10.30
2023-03-17T00:17:15.037Z,10.10
2023-03-17T00:19:50.406Z,11.30
2023-03-17T00:22:25.353Z,10.00
2023-03-17T00:25:00.755Z,10.30
2023-03-17T00:27:38.453Z,10.80
2023-03-17T00:30:18.487Z,11.20
2023-03-17T00:32:56.663Z,10.80
2023-03-17T00:35:34.510Z,10.60
2023-03-17T00:38:13.820Z,10.20
2023-03-17T00:40:51.131Z,10.40
2023-03-17T00:43:25.597Z,10.80
2023-03-17T00:46:02.472Z,10.00
2023-03-17T00:48:37.100Z,10.90
2023-03-17T00:51:16.389Z,10.40
2023-03-17T00:53:52.832Z,10.70
2023-03-17T00:56:27.892Z,9.60
2023-03-17T00:59:03.848Z,10.30
2023-03-17T01:01:40.704Z,10.00
2023-03-17T01:04:16.173Z,10.10
2023-03-17T01:06:53.980Z,10.90
2023-03-17T01:09:33.969Z,11.20
2023-03-17T01:12:13.467Z,10.50
2023-03-17T01:14:50.843Z,11.10
2023-03-17T01:17:25.617Z,11.30
2023-03-17T01:20:01.663Z,11.30
2023-03-17T01:22:37.383Z,11.30
2023-03-17T01:25:14.073Z,10.70
2023-03-17T01:27:51.580Z,11.50
2023-03-17T01:30:34.168Z,10.70
2023-03-17T01:33:11.048Z,11.20
2023-03-17T01:35:53.656Z,10.90
2023-03-17T01:38:30.543Z,11.10
2023-03-17T01:41:08.709Z,11.50
2023-03-17T01:43:44.075Z,11.40
2023-03-17T01:46:29.170Z,11.40
2023-03-17T01:49:30.493Z,11.80
2023-03-17T01:52:14.127Z,11.60
2023-03-17T01:54:55.412Z,11.40
2023-03-17T01:57:34.377Z,11.10
2023-03-17T02:00:17.971Z,11.70
2023-03-17T02:03:08.360Z,11.60
2023-03-17T02:05:44.085Z,11.80
2023-03-17T02:08:21.108Z,12.10
2023-03-17T02:10:59.692Z,12.10
2023-03-17T02:13:38.962Z,11.20
2023-03-17T02:16:18.327Z,10.80
2023-03-17T02:18:53.865Z,11.60
2023-03-17T02:21:41.617Z,11.30
2023-03-17T02:24:30.940Z,11.50
2023-03-17T02:27:15.718Z,11.70
2023-03-17T02:29:52.070Z,12.00
2023-03-17T02:32:26.966Z,11.20
2023-03-17T02:35:03.191Z,11.10
2023-03-17T02:37:41.843Z,11.60
2023-03-17T02:40:18.627Z,11.80
2023-03-17T02:42:55.001Z,12.10
2023-03-17T02:45:31.889Z,12.60
2023-03-17T02:48:12.758Z,11.50
2023-03-17T02:50:48.001Z,12.20
2023-03-17T02:53:25.798Z,12.90
2023-03-17T02:56:03.701Z,12.40
2023-03-17T02:58:40.487Z,12.10
2023-03-17T03:01:21.226Z,12.20
2023-03-17T03:03:57.318Z,12.10
2023-03-17T03:06:32.802Z,12.60
2023-03-17T03:09:11.937Z,12.30
2023-03-17T03:11:46.810Z,12.90
2023-03-17T03:14:22.576Z,13.30
2023-03-17T03:16:59.779Z,12.80
2023-03-17T03:19:35.716Z,12.20
2023-03-17T03:22:13.094Z,12.20
2023-03-17T03:24:49.471Z,12.70
2023-03-17T03:27:26.197Z,12.50
2023-03-17T03:30:01.957Z,12.40
2023-03-17T03:32:37.699Z,12.60
2023-03-17T03:35:14.363Z,13.20
2023-03-17T03:37:49.343Z,12.90
2023-03-17T03:40:25.510Z,13.80
2023-03-17T03:43:16.082Z,12.40
2023-03-17T03:46:00.117Z,12.50
2023-03-17T03:48:38.852Z,13.80
2023-03-17T03:51:13.686Z,13.30
2023-03-17T03:53:49.696Z,12.30
2023-03-17T03:56:28.565Z,12.90
2023-03-17T03:59:04.624Z,12.50
2023-03-17T04:01:40.378Z,12.80
2023-03-17T04:04:16.612Z,12.30
2023-03-17T04:06:52.726Z,13.40
2023-03-17T04:09:31.931Z,12.60
2023-03-17T04:12:08.409Z,12.30
2023-03-17T04:14:47.177Z,12.20
2023-03-17T04:17:22.031Z,12.10
2023-03-17T04:19:58.521Z,12.60
2023-03-17T04:22:34.560Z,12.40
2023-03-17T04:25:16.345Z,13.80
2023-03-17T04:27:53.713Z,12.30
2023-03-17T04:30:33.365Z,13.60
2023-03-17T04:33:14.888Z,12.20
2023-03-17T04:35:53.521Z,12.50
2023-03-17T04:38:32.476Z,12.20
2023-03-17T04:41:12.236Z,13.00
2023-03-17T04:43:50.022Z,12.00
2023-03-17T04:46:26.807Z,12.30
2023-03-17T04:49:09.308Z,12.10
2023-03-17T04:51:46.489Z,11.80
2023-03-17T04:54:27.517Z,11.40
2023-03-17T04:57:05.350Z,12.60
2023-03-17T04:59:44.593Z,13.20
2023-03-17T05:02:24.498Z,12.20
2023-03-17T05:05:02.781Z,12.10
2023-03-17T05:07:37.599Z,12.50
2023-03-17T05:10:15.605Z,11.80
2023-03-17T05:12:50.070Z,11.40
2023-03-17T05:15:25.565Z,12.30
2023-03-17T05:18:03.914Z,12.10
2023-03-17T05:20:39.896Z,12.60
2023-03-17T05:23:16.335Z,12.40
2023-03-17T05:25:51.007Z,11.60
2023-03-17T05:28:32.536Z,12.90
2023-03-17T05:31:10.952Z,13.00
2023-03-17T05:33:49.159Z,11.20
2023-03-17T05:36:25.898Z,11.60
2023-03-17T05:39:05.096Z,12.60
2023-03-17T05:41:43.872Z,11.40
2023-03-17T05:44:20.377Z,12.10
2023-03-17T05:46:55.334Z,12.10
2023-03-17T05:49:32.958Z,11.90
2023-03-17T05:52:08.768Z,12.20
2023-03-17T05:54:44.520Z,13.10
2023-03-17T05:57:19.002Z,12.30
2023-03-17T05:59:54.725Z,12.10
2023-03-17T06:02:30.510Z,12.50
2023-03-17T06:05:11.381Z,13.00
2023-03-17T06:07:54.788Z,11.70
2023-03-17T06:13:13.084Z,12.30
2023-03-17T06:15:51.473Z,12.30
2023-03-17T06:18:26.378Z,12.10
2023-03-17T06:21:04.714Z,11.70
2023-03-17T06:23:39.600Z,11.80
2023-03-17T06:26:20.376Z,11.20
2023-03-17T06:28:58.086Z,11.70
2023-03-17T06:31:34.420Z,11.80
2023-03-17T06:34:13.762Z,11.40
2023-03-17T06:36:51.596Z,11.30
2023-03-17T06:39:29.230Z,11.30
2023-03-17T06:42:15.216Z,12.30
2023-03-17T06:44:52.929Z,11.70
2023-03-17T06:47:29.693Z,11.30
2023-03-17T06:50:06.872Z,12.20
2023-03-17T06:52:45.036Z,13.10
2023-03-17T06:55:23.653Z,11.60
2023-03-17T06:58:04.571Z,11.00
2023-03-17T07:00:43.294Z,12.30
2023-03-17T07:03:21.002Z,10.80
2023-03-17T07:06:01.501Z,10.20
2023-03-17T07:08:46.409Z,11.30
2023-03-17T07:11:24.834Z,10.50
2023-03-17T07:14:01.495Z,10.90
2023-03-17T07:16:41.070Z,10.50
2023-03-17T07:19:18.612Z,10.50
2023-03-17T07:21:58.395Z,10.30
2023-03-17T07:24:35.215Z,10.20
2023-03-17T07:27:16.737Z,10.20
2023-03-17T07:29:51.924Z,10.00
2023-03-17T07:32:27.042Z,10.20
2023-03-17T07:35:07.004Z,10.00
2023-03-17T07:37:44.410Z,10.80
2023-03-17T07:40:22.545Z,9.90
2023-03-17T07:42:59.754Z,10.70
2023-03-17T07:45:37.614Z,9.70
2023-03-17T07:48:16.381Z,10.50
2023-03-17T07:50:54.509Z,10.30
2023-03-17T07:53:33.032Z,9.80
2023-03-17T07:56:09.898Z,10.30
2023-03-17T07:58:46.734Z,11.20
2023-03-17T08:01:21.730Z,10.30
2023-03-17T08:04:01.894Z,9.90
2023-03-17T08:06:38.663Z,9.70
2023-03-17T08:09:16.140Z,10.00
2023-03-17T08:11:57.675Z,9.60
2023-03-17T08:14:34.950Z,9.90
2023-03-17T08:17:12.937Z,10.00
2023-03-17T08:19:50.620Z,10.00
2023-03-17T08:22:30.353Z,10.40
2023-03-17T08:25:06.832Z,8.70
2023-03-17T08:27:46.201Z,9.40
2023-03-17T08:30:22.171Z,10.00
2023-03-17T08:33:00.954Z,9.90
2023-03-17T08:35:40.496Z,8.90
2023-03-17T08:38:16.184Z,10.50
2023-03-17T08:40:54.432Z,9.40
2023-03-17T08:43:29.882Z,9.20
2023-03-17T08:46:17.602Z,8.50
2023-03-17T08:48:57.553Z,9.60
2023-03-17T08:51:40.994Z,8.50
2023-03-17T08:54:24.411Z,8.50
2023-03-17T08:57:02.001Z,7.70
2023-03-17T08:59:40.886Z,8.30
2023-03-17T09:02:21.642Z,8.60
2023-03-17T09:05:00.269Z,8.50
2023-03-17T09:07:42.035Z,8.20
2023-03-17T09:10:26.360Z,9.40
2023-03-17T09:15:51.751Z,8.80
2023-03-17T09:18:27.577Z,8.70
2023-03-17T09:21:06.961Z,8.10
2023-03-17T09:23:43.731Z,8.50
2023-03-17T09:26:20.311Z,7.30
2023-03-17T09:28:57.179Z,8.10
2023-03-17T09:31:33.464Z,7.90
2023-03-17T09:34:12.783Z,8.00
2023-03-17T09:36:49.915Z,7.90
2023-03-17T09:39:27.716Z,8.00
2023-03-17T09:42:15.634Z,8.30
2023-03-17T09:45:07.673Z,6.90
2023-03-17T09:48:06.813Z,7.70
2023-03-17T09:50:49.852Z,9.10
2023-03-17T09:53:34.057Z,7.60
2023-03-17T09:56:17.054Z,7.80
2023-03-17T09:58:59.323Z,7.20
2023-03-17T10:01:34.282Z,8.80
2023-03-17T10:04:24.154Z,7.00
2023-03-17T10:07:11.516Z,6.60
2023-03-17T10:09:55.376Z,7.10
2023-03-17T10:12:51.158Z,6.40
2023-03-17T10:15:39.139Z,7.60
2023-03-17T10:18:21.449Z,6.90
2023-03-17T10:21:00.901Z,7.70
2023-03-17T10:23:42.428Z,6.80
2023-03-17T10:26:31.723Z,7.50
2023-03-17T10:29:18.072Z,7.60
2023-03-17T10:31:58.297Z,6.80
2023-03-17T10:34:40.015Z,7.20
2023-03-17T10:37:22.851Z,6.60
2023-03-17T10:40:05.387Z,7.30
2023-03-17T10:42:50.749Z,6.60
2023-03-17T10:45:32.813Z,6.90
2023-03-17T10:50:58.373Z,6.60
2023-03-17T10:53:46.309Z,6.90
2023-03-17T10:56:30.956Z,6.50
2023-03-17T10:59:20.150Z,7.00
2023-03-17T11:02:02.320Z,6.30
2023-03-17T11:04:42.881Z,6.40
2023-03-17T11:07:34.852Z,6.30
2023-03-17T11:10:21.706Z,7.30
2023-03-17T11:13:07.076Z,6.60
2023-03-17T11:15:49.124Z,6.50
2023-03-17T11:18:32.058Z,6.90
2023-03-17T11:21:13.174Z,6.40
2023-03-17T11:23:56.029Z,6.20
2023-03-17T11:26:58.802Z,5.70
2023-03-17T11:29:59.670Z,6.20
2023-03-17T11:32:43.254Z,6.40
2023-03-17T11:35:38.361Z,6.50
2023-03-17T11:38:29.212Z,5.90
2023-03-17T11:41:34.877Z,6.80
2023-03-17T11:44:57.813Z,6.20
2023-03-17T11:48:10.709Z,6.40
2023-03-17T11:50:57.480Z,6.20
2023-03-17T11:54:00.112Z,5.50
2023-03-17T11:56:45.591Z,5.90
2023-03-17T11:59:38.622Z,6.70
2023-03-17T12:02:29.950Z,6.20
2023-03-17T12:05:10.094Z,5.60
2023-03-17T12:07:49.474Z,5.30
2023-03-17T12:10:33.510Z,7.10
2023-03-17T12:13:14.600Z,5.50
2023-03-17T12:15:55.560Z,5.60
2023-03-17T12:18:37.359Z,5.80
2023-03-17T12:21:21.842Z,5.40
2023-03-17T12:24:04.321Z,5.70
2023-03-17T12:26:51.069Z,5.80
2023-03-17T12:29:40.532Z,5.70
2023-03-17T12:32:26.289Z,5.90
2023-03-17T12:35:15.238Z,5.90
2023-03-17T12:37:56.236Z,5.60
2023-03-17T12:40:36.713Z,6.00
2023-03-17T12:43:41.389Z,5.50
2023-03-17T12:46:41.592Z,5.70
2023-03-17T12:49:43.069Z,5.90
2023-03-17T12:52:46.483Z,5.50
2023-03-17T12:55:30.515Z,5.50
2023-03-17T12:58:23.764Z,5.80
2023-03-17T13:01:16.856Z,5.90
2023-03-17T13:04:05.778Z,6.00
2023-03-17T13:06:48.201Z,4.90
2023-03-17T13:09:53.242Z,5.40
2023-03-17T13:13:10.093Z,5.60
2023-03-17T13:16:00.144Z,5.00
2023-03-17T13:18:55.470Z,5.10
2023-03-17T13:21:35.333Z,5.50
2023-03-17T13:24:51.598Z,5.60
2023-03-17T13:27:50.174Z,5.20
2023-03-17T13:30:58.418Z,6.20
2023-03-17T13:33:39.182Z,5.00
2023-03-17T13:36:36.951Z,5.60
2023-03-17T13:39:55.593Z,6.40
2023-03-17T13:43:06.826Z,6.40
2023-03-17T13:45:48.889Z,6.30
2023-03-17T13:48:47.146Z,5.80
2023-03-17T13:51:30.565Z,6.90
2023-03-17T13:54:33.542Z,6.30
2023-03-17T13:57:40.754Z,5.30
2023-03-17T14:00:27.055Z,5.20
2023-03-17T14:03:09.906Z,6.30
2023-03-17T14:05:54.114Z,6.50
2023-03-17T14:08:36.675Z,5.50
2023-03-17T14:11:24.298Z,6.20
2023-03-17T14:14:31.702Z,6.30
2023-03-17T14:17:15.456Z,7.70
2023-03-17T14:23:03.146Z,7.70
2023-03-17T14:25:43.265Z,7.00
2023-03-17T14:28:23.725Z,7.40
2023-03-17T14:31:07.007Z,6.90
2023-03-17T14:33:47.851Z,7.20
2023-03-17T14:36:23.874Z,7.80
2023-03-17T14:39:02.053Z,7.70
2023-03-17T14:41:44.894Z,7.00
2023-03-17T14:44:19.897Z,6.20
2023-03-17T14:47:06.760Z,6.30
2023-03-17T14:49:47.184Z,7.00
2023-03-17T14:52:29.463Z,7.00
2023-03-17T14:55:14.121Z,6.50
2023-03-17T14:58:02.093Z,6.70
2023-03-17T15:00:43.893Z,6.20
2023-03-17T15:03:25.464Z,6.30
2023-03-17T15:06:24.361Z,6.50
2023-03-17T15:09:09.825Z,5.90
2023-03-17T15:11:50.276Z,5.90
2023-03-17T15:14:31.070Z,7.70
2023-03-17T15:17:17.356Z,7.50
2023-03-17T15:19:57.259Z,6.90
2023-03-17T15:22:42.931Z,5.90
2023-03-17T15:25:29.324Z,6.00
2023-03-17T15:28:11.174Z,6.60
2023-03-17T15:30:49.920Z,6.10
2023-03-17T15:33:36.236Z,6.70
2023-03-17T15:36:33.552Z,7.00
2023-03-17T15:39:10.356Z,5.70
2023-03-17T15:41:45.046Z,6.30
2023-03-17T15:44:21.116Z,5.80
2023-03-17T15:46:59.661Z,6.00
2023-03-17T15:49:38.614Z,7.20
2023-03-17T15:52:24.504Z,7.10
2023-03-17T15:55:05.087Z,5.70
2023-03-17T15:57:54.713Z,5.80
2023-03-17T16:00:37.427Z,6.30
2023-03-17T16:03:25.652Z,6.10
2023-03-17T16:06:02.594Z,6.70
2023-03-17T16:08:38.421Z,5.90
2023-03-17T16:11:29.122Z,5.90
2023-03-17T16:14:08.666Z,5.60
2023-03-17T16:16:46.977Z,5.60
2023-03-17T16:19:26.493Z,6.50
2023-03-17T16:22:01.721Z,6.40
2023-03-17T16:24:39.545Z,6.00
2023-03-17T16:27:23.093Z,5.60
2023-03-17T16:29:57.598Z,6.80
2023-03-17T16:32:34.249Z,6.70
2023-03-17T16:35:19.120Z,6.80
2023-03-17T16:37:55.107Z,6.50
2023-03-17T16:40:38.660Z,7.40
2023-03-17T16:43:25.663Z,7.40
2023-03-17T16:46:03.315Z,7.10
2023-03-17T16:48:38.099Z,6.10
2023-03-17T16:51:18.942Z,7.00
2023-03-17T16:53:53.563Z,6.60
2023-03-17T16:56:31.571Z,6.60
2023-03-17T16:59:11.107Z,7.50
2023-03-17T17:01:46.974Z,6.60
2023-03-17T17:04:22.006Z,8.20
2023-03-17T17:06:59.050Z,6.90
2023-03-17T17:09:35.129Z,6.60
2023-03-17T17:12:23.780Z,6.60
2023-03-17T17:15:00.863Z,6.90
2023-03-17T17:17:38.611Z,6.80
2023-03-17T17:20:23.026Z,7.00
2023-03-17T17:23:06.288Z,6.60
2023-03-17T17:25:43.579Z,7.00
2023-03-17T17:28:22.397Z,6.80
2023-03-17T17:30:59.760Z,7.00
2023-03-17T17:33:39.196Z,7.20
2023-03-17T17:36:23.071Z,8.60
2023-03-17T17:38:58.683Z,6.70
2023-03-17T17:41:37.175Z,7.20
2023-03-17T17:44:16.056Z,7.20
2023-03-17T17:46:51.581Z,6.80
2023-03-17T17:49:29.149Z,6.70
2023-03-17T17:52:06.362Z,7.30
2023-03-17T17:54:42.397Z,7.00
2023-03-17T17:57:19.841Z,7.40
2023-03-17T17:59:58.133Z,7.10
2023-03-17T18:02:34.337Z,6.80
2023-03-17T18:05:12.765Z,6.70
2023-03-17T18:07:49.175Z,6.40
2023-03-17T18:10:27.180Z,6.90
2023-03-17T18:13:02.214Z,7.40
2023-03-17T18:15:37.822Z,6.10
2023-03-17T18:18:14.239Z,6.30
2023-03-17T18:20:53.168Z,6.80
2023-03-17T18:23:29.741Z,6.70
2023-03-17T18:26:08.813Z,6.80
2023-03-17T18:28:43.838Z,6.50
2023-03-17T18:31:26.568Z,6.60
2023-03-17T18:34:09.698Z,7.50
2023-03-17T18:36:44.887Z,6.20
2023-03-17T18:39:20.805Z,6.50
2023-03-17T18:41:57.848Z,7.70
2023-03-17T18:44:32.390Z,6.40
2023-03-17T18:47:10.627Z,6.50
2023-03-17T18:49:47.150Z,6.30
2023-03-17T18:52:24.622Z,7.10
2023-03-17T18:55:00.315Z,6.40
2023-03-17T18:57:35.123Z,6.10
2023-03-17T19:00:19.864Z,6.70
2023-03-17T19:02:57.990Z,6.60
2023-03-17T19:05:39.381Z,6.80
2023-03-17T19:08:16.669Z,6.70
2023-03-17T19:10:57.026Z,6.60
2023-03-17T19:13:31.845Z,6.20
2023-03-17T19:16:09.608Z,6.70
2023-03-17T19:18:51.879Z,6.90
2023-03-17T19:21:29.951Z,6.10
2023-03-17T19:24:12.411Z,7.30
2023-03-17T19:26:49.489Z,7.00
2023-03-17T19:29:25.605Z,6.60
2023-03-17T19:32:02.405Z,7.30
2023-03-17T19:34:45.668Z,6.60
2023-03-17T19:37:22.775Z,6.30
2023-03-17T19:40:00.351Z,7.10
2023-03-17T19:42:39.013Z,6.70
2023-03-17T19:45:18.862Z,7.40
2023-03-17T19:47:57.609Z,6.70
2023-03-17T19:50:33.363Z,6.80
2023-03-17T19:53:12.460Z,7.60
2023-03-17T19:55:47.942Z,7.30
2023-03-17T19:58:24.102Z,7.00
2023-03-17T20:00:59.482Z,6.50
2023-03-17T20:03:40.428Z,7.00
2023-03-17T20:06:18.217Z,7.00
2023-03-17T20:08:54.330Z,7.80
2023-03-17T20:11:35.906Z,7.30
2023-03-17T20:14:13.351Z,6.90
2023-03-17T20:16:51.043Z,6.40
2023-03-17T20:19:30.073Z,6.60
2023-03-17T20:22:04.802Z,6.90
2023-03-17T20:24:40.594Z,6.80
2023-03-17T20:27:20.048Z,7.20
2023-03-17T20:29:56.614Z,7.70
2023-03-17T20:32:32.660Z,6.90
2023-03-17T20:35:11.902Z,6.70
2023-03-17T20:37:51.323Z,6.90
2023-03-17T20:40:30.258Z,7.00
2023-03-17T20:43:08.153Z,7.60
2023-03-17T20:45:44.307Z,8.30
2023-03-17T20:48:21.589Z,8.00
2023-03-17T20:51:00.504Z,7.90
2023-03-17T20:53:44.673Z,8.90
2023-03-17T20:56:24.628Z,7.60
2023-03-17T20:59:01.229Z,8.60
2023-03-17T21:01:38.663Z,8.80
2023-03-17T21:04:17.623Z,8.50
2023-03-17T21:06:54.433Z,7.80
2023-03-17T21:09:34.611Z,8.30
2023-03-17T21:12:10.530Z,8.20
2023-03-17T21:14:45.462Z,8.10
2023-03-17T21:17:24.514Z,8.70
2023-03-17T21:19:59.262Z,8.40
2023-03-17T21:22:41.715Z,8.00
2023-03-17T21:25:20.992Z,7.60
2023-03-17T21:28:02.011Z,8.40
2023-03-17T21:30:40.470Z,7.80
2023-03-17T21:33:21.495Z,8.10
2023-03-17T21:35:59.968Z,7.70
2023-03-17T21:38:40.918Z,7.50
2023-03-17T21:41:33.685Z,7.10
2023-03-17T21:44:12.082Z,7.70
2023-03-17T21:46:51.000Z,7.30
2023-03-17T21:49:32.528Z,8.30
2023-03-17T21:52:14.984Z,7.90
2023-03-17T21:54:52.039Z,7.60
2023-03-17T21:57:29.620Z,7.20
2023-03-17T22:00:09.585Z,7.90
2023-03-17T22:02:46.609Z,7.10
2023-03-17T22:05:27.315Z,7.80
2023-03-17T22:08:03.338Z,7.50
2023-03-17T22:10:41.436Z,7.40
2023-03-17T22:13:20.200Z,7.20
2023-03-17T22:16:00.620Z,7.60
2023-03-17T22:18:41.941Z,7.30
2023-03-17T22:21:20.553Z,7.30
2023-03-17T22:23:59.398Z,8.00
2023-03-17T22:26:39.959Z,7.10
2023-03-17T22:29:17.538Z,7.00
2023-03-17T22:31:55.921Z,7.40
2023-03-17T22:34:32.175Z,7.10
2023-03-17T22:37:10.710Z,7.20
2023-03-17T22:39:50.662Z,7.20
2023-03-17T22:42:27.679Z,7.90
2023-03-17T22:45:06.958Z,6.90
2023-03-17T22:47:45.677Z,7.30
2023-03-17T22:50:22.002Z,7.20
2023-03-17T22:53:01.433Z,7.80
2023-03-17T22:55:41.333Z,7.60
2023-03-17T22:58:17.683Z,7.30
2023-03-17T23:00:58.529Z,7.20
2023-03-17T23:03:34.950Z,7.40
2023-03-17T23:06:13.201Z,7.90
2023-03-17T23:08:53.706Z,7.50
2023-03-17T23:11:30.912Z,8.40
2023-03-17T23:14:09.834Z,8.20
2023-03-17T23:16:48.214Z,8.60
2023-03-17T23:19:24.753Z,8.60
2023-03-17T23:21:59.535Z,8.30
2023-03-17T23:24:38.963Z,8.20
2023-03-17T23:27:21.251Z,7.90
2023-03-17T23:29:59.228Z,7.60
2023-03-17T23:32:35.860Z,7.80
2023-03-17T23:35:15.762Z,8.40
2023-03-17T23:37:55.485Z,8.30
2023-03-17T23:40:37.625Z,7.70
2023-03-17T23:43:15.224Z,7.50
2023-03-17T23:45:54.061Z,7.50
2023-03-17T23:48:28.970Z,7.60
2023-03-17T23:51:05.395Z,7.40
2023-03-17T23:53:45.257Z,7.50
2023-03-17T23:56:23.853Z,7.70
2023-03-17T23:59:00.852Z,7.90
